sensor_id;sensor_type;location;lat;lon;timestamp;pressure;altitude;pressure_sealevel;temperature;humidity
74336;BME280;62755;-33.398;-70.572;2023-03-20T00:01:58;93067.88;;;27.70;38.59
74336;BME280;62755;-33.398;-70.572;2023-03-20T00:04:47;93081.03;;;27.77;38.06
74336;BME280;62755;-33.398;-70.572;2023-03-20T00:07:37;93083.75;;;27.83;37.79
74336;BME280;62755;-33.398;-70.572;2023-03-20T00:10:33;93085.50;;;27.62;38.67
74336;BME280;62755;-33.398;-70.572;2023-03-20T00:13:25;93073.44;;;27.46;38.40
74336;BME280;62755;-33.398;-70.572;2023-03-20T00:16:17;93074.25;;;27.41;38.82
74336;BME280;62755;-33.398;-70.572;2023-03-20T00:19:11;93099.09;;;27.97;37.49
74336;BME280;62755;-33.398;-70.572;2023-03-20T00:22:02;93090.25;;;27.43;38.33
74336;BME280;62755;-33.398;-70.572;2023-03-20T00:24:52;93094.75;;;27.64;38.15
74336;BME280;62755;-33.398;-70.572;2023-03-20T00:27:42;93093.72;;;27.67;37.93
74336;BME280;62755;-33.398;-70.572;2023-03-20T00:30:32;93104.88;;;27.56;37.87
74336;BME280;62755;-33.398;-70.572;2023-03-20T00:33:23;93103.97;;;27.48;38.62
74336;BME280;62755;-33.398;-70.572;2023-03-20T00:36:14;93107.53;;;27.43;38.52
74336;BME280;62755;-33.398;-70.572;2023-03-20T00:39:04;93106.94;;;27.50;38.40
74336;BME280;62755;-33.398;-70.572;2023-03-20T00:41:54;93109.91;;;27.28;38.73
74336;BME280;62755;-33.398;-70.572;2023-03-20T00:44:49;93110.28;;;27.19;38.81
74336;BME280;62755;-33.398;-70.572;2023-03-20T00:47:40;93115.56;;;27.41;38.30
74336;BME280;62755;-33.398;-70.572;2023-03-20T00:50:31;93095.72;;;27.24;38.04
74336;BME280;62755;-33.398;-70.572;2023-03-20T00:53:20;93116.94;;;27.53;37.62
74336;BME280;62755;-33.398;-70.572;2023-03-20T00:56:29;93115.56;;;27.41;38.02
74336;BME280;62755;-33.398;-70.572;2023-03-20T00:59:21;93120.91;;;27.34;38.02
74336;BME280;62755;-33.398;-70.572;2023-03-20T01:02:11;93126.13;;;27.37;37.90
74336;BME280;62755;-33.398;-70.572;2023-03-20T01:05:01;93128.00;;;27.24;37.57
74336;BME280;62755;-33.398;-70.572;2023-03-20T01:07:53;93128.41;;;27.09;37.80
74336;BME280;62755;-33.398;-70.572;2023-03-20T01:10:43;93130.09;;;26.88;38.43
74336;BME280;62755;-33.398;-70.572;2023-03-20T01:13:34;93128.13;;;26.83;38.92
74336;BME280;62755;-33.398;-70.572;2023-03-20T01:16:26;93131.59;;;26.89;38.28
74336;BME280;62755;-33.398;-70.572;2023-03-20T01:19:16;93127.00;;;26.97;38.37
74336;BME280;62755;-33.398;-70.572;2023-03-20T01:22:05;93125.06;;;26.92;38.27
74336;BME280;62755;-33.398;-70.572;2023-03-20T01:24:57;93100.34;;;26.57;38.86
74336;BME280;62755;-33.398;-70.572;2023-03-20T01:27:49;93124.53;;;26.93;38.64
74336;BME280;62755;-33.398;-70.572;2023-03-20T01:30:38;93127.13;;;26.86;38.55
74336;BME280;62755;-33.398;-70.572;2023-03-20T01:33:28;93126.47;;;27.04;37.95
74336;BME280;62755;-33.398;-70.572;2023-03-20T01:36:20;93113.72;;;26.77;39.03
74336;BME280;62755;-33.398;-70.572;2023-03-20T01:39:10;93116.28;;;26.93;38.77
74336;BME280;62755;-33.398;-70.572;2023-03-20T01:42:02;93107.63;;;27.32;37.65
74336;BME280;62755;-33.398;-70.572;2023-03-20T01:44:51;93102.25;;;27.64;37.26
74336;BME280;62755;-33.398;-70.572;2023-03-20T01:47:41;93102.59;;;27.36;37.54
74336;BME280;62755;-33.398;-70.572;2023-03-20T01:50:31;93098.25;;;27.22;38.36
74336;BME280;62755;-33.398;-70.572;2023-03-20T01:53:24;93104.91;;;27.08;37.99
74336;BME280;62755;-33.398;-70.572;2023-03-20T01:56:15;93108.28;;;27.44;37.52
74336;BME280;62755;-33.398;-70.572;2023-03-20T01:59:11;93099.13;;;27.36;37.66
74336;BME280;62755;-33.398;-70.572;2023-03-20T02:02:02;93097.50;;;27.22;38.49
74336;BME280;62755;-33.398;-70.572;2023-03-20T02:04:54;93094.56;;;26.90;38.66
74336;BME280;62755;-33.398;-70.572;2023-03-20T02:07:48;93100.84;;;26.26;39.74
74336;BME280;62755;-33.398;-70.572;2023-03-20T02:10:39;93097.53;;;26.33;39.36
74336;BME280;62755;-33.398;-70.572;2023-03-20T02:13:30;93098.63;;;26.19;40.17
74336;BME280;62755;-33.398;-70.572;2023-03-20T02:16:21;93098.63;;;26.19;40.65
74336;BME280;62755;-33.398;-70.572;2023-03-20T02:19:18;93099.94;;;26.12;40.07
74336;BME280;62755;-33.398;-70.572;2023-03-20T02:22:26;93087.63;;;26.19;40.14
74336;BME280;62755;-33.398;-70.572;2023-03-20T02:25:41;93096.88;;;26.21;40.47
74336;BME280;62755;-33.398;-70.572;2023-03-20T02:35:39;93082.06;;;26.30;39.96
74336;BME280;62755;-33.398;-70.572;2023-03-20T02:42:04;93092.16;;;26.46;40.10
74336;BME280;62755;-33.398;-70.572;2023-03-20T02:45:02;93094.84;;;26.57;39.86
74336;BME280;62755;-33.398;-70.572;2023-03-20T02:48:01;93095.34;;;26.85;39.19
74336;BME280;62755;-33.398;-70.572;2023-03-20T02:51:00;93098.09;;;26.85;38.79
74336;BME280;62755;-33.398;-70.572;2023-03-20T02:53:57;93094.22;;;26.75;39.06
74336;BME280;62755;-33.398;-70.572;2023-03-20T02:56:55;93098.22;;;26.74;39.48
74336;BME280;62755;-33.398;-70.572;2023-03-20T02:59:53;93097.72;;;26.70;39.07
74336;BME280;62755;-33.398;-70.572;2023-03-20T03:02:49;93099.88;;;26.53;39.47
74336;BME280;62755;-33.398;-70.572;2023-03-20T03:05:43;93084.66;;;26.46;39.49
74336;BME280;62755;-33.398;-70.572;2023-03-20T03:08:36;93088.53;;;26.62;39.62
74336;BME280;62755;-33.398;-70.572;2023-03-20T03:11:30;93090.47;;;26.72;39.35
74336;BME280;62755;-33.398;-70.572;2023-03-20T03:14:29;93086.25;;;26.66;39.44
74336;BME280;62755;-33.398;-70.572;2023-03-20T03:17:23;93093.00;;;26.70;39.18
74336;BME280;62755;-33.398;-70.572;2023-03-20T03:20:21;93087.84;;;26.56;40.00
74336;BME280;62755;-33.398;-70.572;2023-03-20T03:23:19;93087.19;;;26.44;39.88
74336;BME280;62755;-33.398;-70.572;2023-03-20T03:26:13;93094.44;;;26.47;40.26
74336;BME280;62755;-33.398;-70.572;2023-03-20T03:29:12;93091.75;;;26.36;40.29
74336;BME280;62755;-33.398;-70.572;2023-03-20T03:32:05;93100.13;;;26.20;40.09
74336;BME280;62755;-33.398;-70.572;2023-03-20T03:34:55;93094.16;;;26.16;40.62
74336;BME280;62755;-33.398;-70.572;2023-03-20T03:37:52;93088.56;;;26.27;40.04
74336;BME280;62755;-33.398;-70.572;2023-03-20T03:40:50;93082.19;;;26.43;39.27
74336;BME280;62755;-33.398;-70.572;2023-03-20T03:43:45;93086.19;;;26.42;39.45
74336;BME280;62755;-33.398;-70.572;2023-03-20T03:46:44;93084.59;;;26.28;39.69
74336;BME280;62755;-33.398;-70.572;2023-03-20T03:49:36;93083.53;;;26.31;39.81
74336;BME280;62755;-33.398;-70.572;2023-03-20T03:52:28;93086.59;;;25.81;40.11
74336;BME280;62755;-33.398;-70.572;2023-03-20T03:55:21;93084.84;;;25.83;40.87
74336;BME280;62755;-33.398;-70.572;2023-03-20T03:58:16;93075.34;;;25.84;40.70
74336;BME280;62755;-33.398;-70.572;2023-03-20T04:01:08;93081.28;;;25.94;40.52
74336;BME280;62755;-33.398;-70.572;2023-03-20T04:04:03;93075.28;;;25.95;41.28
74336;BME280;62755;-33.398;-70.572;2023-03-20T04:06:55;93074.50;;;26.06;41.02
74336;BME280;62755;-33.398;-70.572;2023-03-20T04:09:44;93067.97;;;26.09;41.14
74336;BME280;62755;-33.398;-70.572;2023-03-20T04:12:36;93070.72;;;26.03;41.73
74336;BME280;62755;-33.398;-70.572;2023-03-20T04:15:26;93052.53;;;25.95;41.30
74336;BME280;62755;-33.398;-70.572;2023-03-20T04:18:16;93073.69;;;25.70;42.30
74336;BME280;62755;-33.398;-70.572;2023-03-20T04:21:08;93073.38;;;25.79;42.21
74336;BME280;62755;-33.398;-70.572;2023-03-20T04:23:58;93070.94;;;25.07;43.25
74336;BME280;62755;-33.398;-70.572;2023-03-20T04:26:52;93067.31;;;25.46;42.71
74336;BME280;62755;-33.398;-70.572;2023-03-20T04:29:43;93061.50;;;25.60;41.88
74336;BME280;62755;-33.398;-70.572;2023-03-20T04:32:32;93057.72;;;25.63;42.00
74336;BME280;62755;-33.398;-70.572;2023-03-20T04:35:22;93070.47;;;25.66;42.39
74336;BME280;62755;-33.398;-70.572;2023-03-20T04:38:13;93047.53;;;25.58;42.20
74336;BME280;62755;-33.398;-70.572;2023-03-20T04:41:03;93053.03;;;25.58;42.28
74336;BME280;62755;-33.398;-70.572;2023-03-20T04:43:52;93054.03;;;25.55;42.25
74336;BME280;62755;-33.398;-70.572;2023-03-20T04:46:41;93047.47;;;25.69;41.87
74336;BME280;62755;-33.398;-70.572;2023-03-20T04:49:31;93049.72;;;25.65;42.10
74336;BME280;62755;-33.398;-70.572;2023-03-20T04:52:20;93049.00;;;25.59;41.58
74336;BME280;62755;-33.398;-70.572;2023-03-20T04:55:11;93051.78;;;25.54;41.91
74336;BME280;62755;-33.398;-70.572;2023-03-20T04:58:00;93048.25;;;25.64;41.49
74336;BME280;62755;-33.398;-70.572;2023-03-20T05:00:50;93049.97;;;25.67;41.55
74336;BME280;62755;-33.398;-70.572;2023-03-20T05:07:04;93049.38;;;25.28;42.30
74336;BME280;62755;-33.398;-70.572;2023-03-20T05:09:53;93042.34;;;25.38;42.20
74336;BME280;62755;-33.398;-70.572;2023-03-20T05:12:44;93042.59;;;25.51;42.16
74336;BME280;62755;-33.398;-70.572;2023-03-20T05:15:36;93042.88;;;25.42;42.48
74336;BME280;62755;-33.398;-70.572;2023-03-20T05:18:25;93039.41;;;25.31;42.70
74336;BME280;62755;-33.398;-70.572;2023-03-20T05:21:14;93026.81;;;25.00;43.34
74336;BME280;62755;-33.398;-70.572;2023-03-20T05:24:04;93017.03;;;25.10;42.76
74336;BME280;62755;-33.398;-70.572;2023-03-20T05:26:54;93032.19;;;25.22;43.05
74336;BME280;62755;-33.398;-70.572;2023-03-20T05:29:45;93008.69;;;25.32;42.39
74336;BME280;62755;-33.398;-70.572;2023-03-20T05:32:34;93032.59;;;25.48;42.48
74336;BME280;62755;-33.398;-70.572;2023-03-20T05:35:24;93031.63;;;25.40;42.60
74336;BME280;62755;-33.398;-70.572;2023-03-20T05:38:14;93033.00;;;25.63;42.09
74336;BME280;62755;-33.398;-70.572;2023-03-20T05:41:03;93032.59;;;25.48;42.23
74336;BME280;62755;-33.398;-70.572;2023-03-20T05:43:52;93032.63;;;25.43;42.07
74336;BME280;62755;-33.398;-70.572;2023-03-20T05:46:43;93020.31;;;25.03;42.95
74336;BME280;62755;-33.398;-70.572;2023-03-20T05:49:33;93019.81;;;24.99;43.00
74336;BME280;62755;-33.398;-70.572;2023-03-20T05:52:22;93020.72;;;25.18;42.68
74336;BME280;62755;-33.398;-70.572;2023-03-20T05:55:12;93017.97;;;25.23;42.81
74336;BME280;62755;-33.398;-70.572;2023-03-20T05:58:02;93020.97;;;25.25;42.36
74336;BME280;62755;-33.398;-70.572;2023-03-20T06:00:51;93014.44;;;25.28;42.38
74336;BME280;62755;-33.398;-70.572;2023-03-20T06:03:42;93010.44;;;25.35;42.56
74336;BME280;62755;-33.398;-70.572;2023-03-20T06:06:31;93000.91;;;25.47;42.03
74336;BME280;62755;-33.398;-70.572;2023-03-20T06:09:23;93000.41;;;25.38;42.02
74336;BME280;62755;-33.398;-70.572;2023-03-20T06:12:12;93000.00;;;25.22;42.36
74336;BME280;62755;-33.398;-70.572;2023-03-20T06:15:02;92995.22;;;25.28;42.93
74336;BME280;62755;-33.398;-70.572;2023-03-20T06:17:51;92994.56;;;25.17;42.77
74336;BME280;62755;-33.398;-70.572;2023-03-20T06:20:42;92994.31;;;25.15;42.38
74336;BME280;62755;-33.398;-70.572;2023-03-20T06:23:32;92988.34;;;25.11;43.19
74336;BME280;62755;-33.398;-70.572;2023-03-20T06:26:22;92985.34;;;25.09;42.72
74336;BME280;62755;-33.398;-70.572;2023-03-20T06:29:11;92985.59;;;25.11;43.05
74336;BME280;62755;-33.398;-70.572;2023-03-20T06:32:00;92990.28;;;25.16;42.83
74336;BME280;62755;-33.398;-70.572;2023-03-20T06:34:50;92978.84;;;25.17;42.92
74336;BME280;62755;-33.398;-70.572;2023-03-20T06:37:41;92969.84;;;25.17;42.41
74336;BME280;62755;-33.398;-70.572;2023-03-20T06:40:30;92979.13;;;25.08;42.96
74336;BME280;62755;-33.398;-70.572;2023-03-20T06:43:19;92983.63;;;25.00;42.83
74336;BME280;62755;-33.398;-70.572;2023-03-20T06:46:09;92989.44;;;24.86;43.81
74336;BME280;62755;-33.398;-70.572;2023-03-20T06:49:00;92978.66;;;24.99;43.42
74336;BME280;62755;-33.398;-70.572;2023-03-20T06:51:49;92974.63;;;25.11;42.85
74336;BME280;62755;-33.398;-70.572;2023-03-20T06:54:40;92966.97;;;24.93;43.46
74336;BME280;62755;-33.398;-70.572;2023-03-20T06:57:30;92961.38;;;25.15;42.83
74336;BME280;62755;-33.398;-70.572;2023-03-20T07:00:19;92956.56;;;25.26;42.69
74336;BME280;62755;-33.398;-70.572;2023-03-20T07:03:09;92932.31;;;24.90;43.26
74336;BME280;62755;-33.398;-70.572;2023-03-20T07:05:58;92948.09;;;25.24;43.15
74336;BME280;62755;-33.398;-70.572;2023-03-20T07:08:48;92937.53;;;24.93;42.96
74336;BME280;62755;-33.398;-70.572;2023-03-20T07:11:40;92949.75;;;24.98;42.92
74336;BME280;62755;-33.398;-70.572;2023-03-20T07:14:29;92941.31;;;24.85;42.67
74336;BME280;62755;-33.398;-70.572;2023-03-20T07:17:19;92941.59;;;24.76;43.12
74336;BME280;62755;-33.398;-70.572;2023-03-20T07:20:10;92941.59;;;24.76;43.28
74336;BME280;62755;-33.398;-70.572;2023-03-20T07:22:59;92941.16;;;24.61;43.73
74336;BME280;62755;-33.398;-70.572;2023-03-20T07:25:48;92933.47;;;24.31;44.00
74336;BME280;62755;-33.398;-70.572;2023-03-20T07:28:39;92928.81;;;24.04;44.52
74336;BME280;62755;-33.398;-70.572;2023-03-20T07:31:29;92921.31;;;24.21;44.50
74336;BME280;62755;-33.398;-70.572;2023-03-20T07:34:18;92925.56;;;24.11;44.43
74336;BME280;62755;-33.398;-70.572;2023-03-20T07:37:09;92902.63;;;24.20;44.01
74336;BME280;62755;-33.398;-70.572;2023-03-20T07:39:58;92922.75;;;24.33;43.96
74336;BME280;62755;-33.398;-70.572;2023-03-20T07:42:47;92919.56;;;24.24;44.10
74336;BME280;62755;-33.398;-70.572;2023-03-20T07:45:38;92924.03;;;24.27;43.97
74336;BME280;62755;-33.398;-70.572;2023-03-20T07:48:28;92920.75;;;24.51;43.58
74336;BME280;62755;-33.398;-70.572;2023-03-20T07:51:17;92916.72;;;24.52;43.62
74336;BME280;62755;-33.398;-70.572;2023-03-20T07:54:06;92916.78;;;24.29;44.22
74336;BME280;62755;-33.398;-70.572;2023-03-20T07:56:56;92908.06;;;24.36;43.51
74336;BME280;62755;-33.398;-70.572;2023-03-20T07:59:45;92911.81;;;24.28;44.17
74336;BME280;62755;-33.398;-70.572;2023-03-20T08:02:36;92912.56;;;24.28;43.73
74336;BME280;62755;-33.398;-70.572;2023-03-20T08:05:26;92908.84;;;24.20;44.05
74336;BME280;62755;-33.398;-70.572;2023-03-20T08:08:15;92912.81;;;24.30;43.55
74336;BME280;62755;-33.398;-70.572;2023-03-20T08:11:05;92905.81;;;24.40;43.42
74336;BME280;62755;-33.398;-70.572;2023-03-20T08:13:54;92904.88;;;24.21;43.92
74336;BME280;62755;-33.398;-70.572;2023-03-20T08:16:44;92905.16;;;24.07;44.26
74336;BME280;62755;-33.398;-70.572;2023-03-20T08:19:35;92906.31;;;24.33;43.45
74336;BME280;62755;-33.398;-70.572;2023-03-20T08:22:24;92891.88;;;24.33;43.80
74336;BME280;62755;-33.398;-70.572;2023-03-20T08:25:14;92901.66;;;24.01;44.27
74336;BME280;62755;-33.398;-70.572;2023-03-20T08:28:03;92908.88;;;23.87;44.82
74336;BME280;62755;-33.398;-70.572;2023-03-20T08:30:52;92903.91;;;24.02;44.33
74336;BME280;62755;-33.398;-70.572;2023-03-20T08:33:42;92903.41;;;24.04;44.34
74336;BME280;62755;-33.398;-70.572;2023-03-20T08:36:33;92905.66;;;24.05;44.50
74336;BME280;62755;-33.398;-70.572;2023-03-20T08:39:35;92900.91;;;24.11;44.50
74336;BME280;62755;-33.398;-70.572;2023-03-20T08:42:25;92893.69;;;23.97;45.17
74336;BME280;62755;-33.398;-70.572;2023-03-20T08:45:14;92899.16;;;24.08;44.57
74336;BME280;62755;-33.398;-70.572;2023-03-20T08:48:04;92895.41;;;24.00;44.23
74336;BME280;62755;-33.398;-70.572;2023-03-20T08:50:53;92903.91;;;24.13;44.07
74336;BME280;62755;-33.398;-70.572;2023-03-20T08:53:44;92895.94;;;24.15;44.36
74336;BME280;62755;-33.398;-70.572;2023-03-20T08:56:34;92898.94;;;23.68;44.95
74336;BME280;62755;-33.398;-70.572;2023-03-20T08:59:23;92897.69;;;23.69;45.11
74336;BME280;62755;-33.398;-70.572;2023-03-20T09:02:13;92904.16;;;23.71;44.87
74336;BME280;62755;-33.398;-70.572;2023-03-20T09:05:02;92913.13;;;23.72;44.91
74336;BME280;62755;-33.398;-70.572;2023-03-20T09:07:52;92903.91;;;23.69;45.36
74336;BME280;62755;-33.398;-70.572;2023-03-20T09:10:43;92907.91;;;23.68;45.57
74336;BME280;62755;-33.398;-70.572;2023-03-20T09:13:34;92912.88;;;23.81;45.08
74336;BME280;62755;-33.398;-70.572;2023-03-20T09:16:24;92915.09;;;23.82;44.97
74336;BME280;62755;-33.398;-70.572;2023-03-20T09:19:13;92907.16;;;23.79;45.07
74336;BME280;62755;-33.398;-70.572;2023-03-20T09:22:03;92912.38;;;23.77;45.15
74336;BME280;62755;-33.398;-70.572;2023-03-20T09:24:52;92900.94;;;23.67;45.05
74336;BME280;62755;-33.398;-70.572;2023-03-20T09:27:43;92902.41;;;23.79;44.57
74336;BME280;62755;-33.398;-70.572;2023-03-20T09:30:32;92907.16;;;23.79;44.38
74336;BME280;62755;-33.398;-70.572;2023-03-20T09:33:22;92901.41;;;23.82;44.33
74336;BME280;62755;-33.398;-70.572;2023-03-20T09:36:11;92899.69;;;23.79;44.20
74336;BME280;62755;-33.398;-70.572;2023-03-20T09:39:01;92907.41;;;23.64;44.32
74336;BME280;62755;-33.398;-70.572;2023-03-20T09:41:51;92910.88;;;23.92;43.75
74336;BME280;62755;-33.398;-70.572;2023-03-20T09:44:51;92902.44;;;23.68;44.21
74336;BME280;62755;-33.398;-70.572;2023-03-20T09:47:48;92899.94;;;23.59;44.70
74336;BME280;62755;-33.398;-70.572;2023-03-20T09:50:45;92897.19;;;23.31;45.00
74336;BME280;62755;-33.398;-70.572;2023-03-20T09:53:38;92915.81;;;23.11;45.64
74336;BME280;62755;-33.398;-70.572;2023-03-20T09:56:29;92900.81;;;22.84;45.86
74336;BME280;62755;-33.398;-70.572;2023-03-20T09:59:20;92917.72;;;22.88;45.58
74336;BME280;62755;-33.398;-70.572;2023-03-20T10:02:15;92911.34;;;23.30;44.80
74336;BME280;62755;-33.398;-70.572;2023-03-20T10:05:17;92909.88;;;23.29;45.07
74336;BME280;62755;-33.398;-70.572;2023-03-20T10:08:12;92911.88;;;23.34;45.03
74336;BME280;62755;-33.398;-70.572;2023-03-20T10:11:11;92915.13;;;23.43;44.42
74336;BME280;62755;-33.398;-70.572;2023-03-20T10:14:22;92922.34;;;23.63;44.14
74336;BME280;62755;-33.398;-70.572;2023-03-20T10:17:37;92924.34;;;23.35;44.99
74336;BME280;62755;-33.398;-70.572;2023-03-20T10:20:32;92919.88;;;23.54;44.75
74336;BME280;62755;-33.398;-70.572;2023-03-20T10:23:26;92934.78;;;23.31;45.26
74336;BME280;62755;-33.398;-70.572;2023-03-20T10:26:18;92939.00;;;23.32;45.54
74336;BME280;62755;-33.398;-70.572;2023-03-20T10:29:18;92944.72;;;23.45;45.49
74336;BME280;62755;-33.398;-70.572;2023-03-20T10:32:18;92956.19;;;23.60;44.95
74336;BME280;62755;-33.398;-70.572;2023-03-20T10:35:20;92939.75;;;23.71;44.59
74336;BME280;62755;-33.398;-70.572;2023-03-20T10:38:21;92949.72;;;23.63;44.84
74336;BME280;62755;-33.398;-70.572;2023-03-20T10:41:15;92950.41;;;23.25;45.90
74336;BME280;62755;-33.398;-70.572;2023-03-20T10:44:09;92928.22;;;23.12;45.59
74336;BME280;62755;-33.398;-70.572;2023-03-20T10:47:04;92960.59;;;23.30;46.11
74336;BME280;62755;-33.398;-70.572;2023-03-20T10:49:57;92958.63;;;23.25;46.11
74336;BME280;62755;-33.398;-70.572;2023-03-20T10:52:51;92967.81;;;23.27;45.73
74336;BME280;62755;-33.398;-70.572;2023-03-20T10:55:43;92968.34;;;23.31;45.42
74336;BME280;62755;-33.398;-70.572;2023-03-20T10:58:36;92967.53;;;23.20;46.10
74336;BME280;62755;-33.398;-70.572;2023-03-20T11:01:27;92980.50;;;23.25;45.91
74336;BME280;62755;-33.398;-70.572;2023-03-20T11:04:16;92975.81;;;23.31;45.91
74336;BME280;62755;-33.398;-70.572;2023-03-20T11:07:11;92981.22;;;23.25;45.25
74336;BME280;62755;-33.398;-70.572;2023-03-20T11:10:14;92988.47;;;23.23;44.86
74336;BME280;62755;-33.398;-70.572;2023-03-20T11:13:14;92993.16;;;23.11;44.94
74336;BME280;62755;-33.398;-70.572;2023-03-20T11:16:17;93001.84;;;23.10;45.08
74336;BME280;62755;-33.398;-70.572;2023-03-20T11:19:11;93001.63;;;23.13;45.39
74336;BME280;62755;-33.398;-70.572;2023-03-20T11:22:06;93011.28;;;23.09;45.51
74336;BME280;62755;-33.398;-70.572;2023-03-20T11:24:56;93016.78;;;23.09;45.65
74336;BME280;62755;-33.398;-70.572;2023-03-20T11:27:49;93019.69;;;23.00;46.12
74336;BME280;62755;-33.398;-70.572;2023-03-20T11:30:40;93023.22;;;23.06;46.14
74336;BME280;62755;-33.398;-70.572;2023-03-20T11:33:29;93024.16;;;22.92;46.33
74336;BME280;62755;-33.398;-70.572;2023-03-20T11:36:25;93025.22;;;23.11;46.08
74336;BME280;62755;-33.398;-70.572;2023-03-20T11:39:21;93022.25;;;23.20;46.30
74336;BME280;62755;-33.398;-70.572;2023-03-20T11:42:22;93028.13;;;22.91;47.12
74336;BME280;62755;-33.398;-70.572;2023-03-20T11:45:16;93035.94;;;23.20;46.43
74336;BME280;62755;-33.398;-70.572;2023-03-20T11:48:09;93046.84;;;23.09;46.96
74336;BME280;62755;-33.398;-70.572;2023-03-20T11:51:03;93056.78;;;23.01;47.30
74336;BME280;62755;-33.398;-70.572;2023-03-20T11:53:59;93066.25;;;23.11;47.14
74336;BME280;62755;-33.398;-70.572;2023-03-20T11:56:54;93061.16;;;23.35;46.67
74336;BME280;62755;-33.398;-70.572;2023-03-20T11:59:43;93066.66;;;23.46;46.11
74336;BME280;62755;-33.398;-70.572;2023-03-20T12:02:35;93065.59;;;23.27;47.41
74336;BME280;62755;-33.398;-70.572;2023-03-20T12:05:30;93071.44;;;23.62;46.24
74336;BME280;62755;-33.398;-70.572;2023-03-20T12:08:21;93074.78;;;23.29;46.83
74336;BME280;62755;-33.398;-70.572;2023-03-20T12:11:23;93074.63;;;23.49;46.32
74336;BME280;62755;-33.398;-70.572;2023-03-20T12:14:25;93081.84;;;23.47;46.05
74336;BME280;62755;-33.398;-70.572;2023-03-20T12:17:28;93075.59;;;23.41;46.64
74336;BME280;62755;-33.398;-70.572;2023-03-20T12:20:34;93083.22;;;23.26;46.98
74336;BME280;62755;-33.398;-70.572;2023-03-20T12:23:30;93091.81;;;22.97;47.27
74336;BME280;62755;-33.398;-70.572;2023-03-20T12:26:25;93097.06;;;23.06;47.39
74336;BME280;62755;-33.398;-70.572;2023-03-20T12:29:25;93089.91;;;23.19;48.92
74336;BME280;62755;-33.398;-70.572;2023-03-20T12:32:19;93086.28;;;23.39;47.00
74336;BME280;62755;-33.398;-70.572;2023-03-20T12:35:14;93089.09;;;23.61;46.50
74336;BME280;62755;-33.398;-70.572;2023-03-20T12:38:15;93092.34;;;23.60;46.70
74336;BME280;62755;-33.398;-70.572;2023-03-20T12:41:12;93094.13;;;23.79;46.30
74336;BME280;62755;-33.398;-70.572;2023-03-20T12:44:18;93093.41;;;23.90;46.17
74336;BME280;62755;-33.398;-70.572;2023-03-20T12:47:19;93101.56;;;23.73;45.80
74336;BME280;62755;-33.398;-70.572;2023-03-20T12:50:23;93096.44;;;24.03;46.42
74336;BME280;62755;-33.398;-70.572;2023-03-20T12:53:36;93098.38;;;23.97;45.96
74336;BME280;62755;-33.398;-70.572;2023-03-20T12:56:39;93093.69;;;24.08;45.79
74336;BME280;62755;-33.398;-70.572;2023-03-20T12:59:41;93095.16;;;23.98;45.60
74336;BME280;62755;-33.398;-70.572;2023-03-20T13:02:44;93092.22;;;24.18;45.13
74336;BME280;62755;-33.398;-70.572;2023-03-20T13:05:42;93100.19;;;24.16;45.33
74336;BME280;62755;-33.398;-70.572;2023-03-20T13:08:47;93097.69;;;24.18;45.28
74336;BME280;62755;-33.398;-70.572;2023-03-20T13:11:44;93093.94;;;24.16;45.37
74336;BME280;62755;-33.398;-70.572;2023-03-20T13:14:40;93102.91;;;24.16;45.16
74336;BME280;62755;-33.398;-70.572;2023-03-20T13:17:36;93097.47;;;24.33;45.18
74336;BME280;62755;-33.398;-70.572;2023-03-20T13:20:28;93093.94;;;24.43;44.91
74336;BME280;62755;-33.398;-70.572;2023-03-20T13:23:22;93090.72;;;24.45;44.49
74336;BME280;62755;-33.398;-70.572;2023-03-20T13:26:23;93098.19;;;24.33;44.03
74336;BME280;62755;-33.398;-70.572;2023-03-20T13:29:20;93093.72;;;24.30;44.03
74336;BME280;62755;-33.398;-70.572;2023-03-20T13:32:20;93095.22;;;24.42;44.74
74336;BME280;62755;-33.398;-70.572;2023-03-20T13:35:30;93097.69;;;24.29;44.43
74336;BME280;62755;-33.398;-70.572;2023-03-20T13:38:27;93099.69;;;24.34;44.64
74336;BME280;62755;-33.398;-70.572;2023-03-20T13:41:22;93103.44;;;24.42;44.23
74336;BME280;62755;-33.398;-70.572;2023-03-20T13:44:13;93105.66;;;24.72;43.69
74336;BME280;62755;-33.398;-70.572;2023-03-20T13:47:11;93099.69;;;24.79;43.68
74336;BME280;62755;-33.398;-70.572;2023-03-20T13:50:15;93105.91;;;24.85;42.89
74336;BME280;62755;-33.398;-70.572;2023-03-20T13:53:15;93107.38;;;24.69;43.52
74336;BME280;62755;-33.398;-70.572;2023-03-20T13:56:12;93106.44;;;24.72;44.10
74336;BME280;62755;-33.398;-70.572;2023-03-20T13:59:45;93114.16;;;24.79;44.16
74336;BME280;62755;-33.398;-70.572;2023-03-20T14:02:49;93111.38;;;24.96;44.09
74336;BME280;62755;-33.398;-70.572;2023-03-20T14:05:43;93110.13;;;24.97;43.71
74336;BME280;62755;-33.398;-70.572;2023-03-20T14:08:34;93106.88;;;24.93;43.52
74336;BME280;62755;-33.398;-70.572;2023-03-20T14:11:28;93114.63;;;25.00;43.49
74336;BME280;62755;-33.398;-70.572;2023-03-20T14:14:25;93090.47;;;24.82;43.58
74336;BME280;62755;-33.398;-70.572;2023-03-20T14:17:22;93114.84;;;24.96;43.39
74336;BME280;62755;-33.398;-70.572;2023-03-20T14:20:21;93115.88;;;24.88;43.78
74336;BME280;62755;-33.398;-70.572;2023-03-20T14:23:17;93123.63;;;24.73;43.60
74336;BME280;62755;-33.398;-70.572;2023-03-20T14:26:10;93120.59;;;24.71;43.87
74336;BME280;62755;-33.398;-70.572;2023-03-20T14:29:25;93099.16;;;24.69;43.54
74336;BME280;62755;-33.398;-70.572;2023-03-20T14:32:32;93115.84;;;25.04;42.67
74336;BME280;62755;-33.398;-70.572;2023-03-20T14:35:24;93121.28;;;25.21;43.14
74336;BME280;62755;-33.398;-70.572;2023-03-20T14:38:23;93121.72;;;25.36;42.64
74336;BME280;62755;-33.398;-70.572;2023-03-20T14:41:18;93125.28;;;25.25;42.21
74336;BME280;62755;-33.398;-70.572;2023-03-20T14:44:23;93124.78;;;25.27;42.18
74336;BME280;62755;-33.398;-70.572;2023-03-20T14:47:28;93129.78;;;25.17;42.64
74336;BME280;62755;-33.398;-70.572;2023-03-20T14:50:25;93124.47;;;25.47;41.88
74336;BME280;62755;-33.398;-70.572;2023-03-20T14:53:17;93130.06;;;25.77;41.23
74336;BME280;62755;-33.398;-70.572;2023-03-20T14:56:09;93136.03;;;25.86;41.11
74336;BME280;62755;-33.398;-70.572;2023-03-20T14:59:04;93133.13;;;26.20;40.84